My webcam  My webcam


Radar lluvias  rain snow radar


Visita nuestra red de sitios de meteo:

Template documentation
and downloads

And another site



Informes METAR proximidad


Warning: A non-numeric value encountered in /var/www/clients/client12/web25/web/weather28/metar/metarDisplay.php on line 167

Warning: A non-numeric value encountered in /var/www/clients/client12/web25/web/weather28/metar/metarDisplay.php on line 167

Warning: A non-numeric value encountered in /var/www/clients/client12/web25/web/weather28/metar/metarDisplay.php on line 167
   
LEXJ - Santander, Spain
Distancia hasta la estación: ESE 6 km
Actualización: 19-05-2022 03:30
Nubes dispersas  
Nubes dispersas  
   Viento: varía 1.9 km/h
Viento: varía 1.9 km/h
Temperatura: 14°C
Punto de rocío: 9°C
Humedad: 72%
Baromètro: 1020 hPa
Nublado: Nubes dispersas
Visibilidad: More than 10 km
detalles de la nube: Nubes dispersas 4700 ft
LEXJ 190130Z AUTO VRB01KT 9999 FEW047 14/09 Q1020
LEBB - Bilbao/Sondica, Spain
Distancia hasta la estación: ESE 80 km
Actualización: 19-05-2022 04:00
Despejado  
Despejado  
   Viento: ESE 1.9 km/h
Viento: ESE 1.9 km/h
Temperatura: 15°C
Punto de rocío: 14°C
Humedad: 94%
Baromètro: 1020 hPa
Visibilidad: More than 10 km
detalles de la nube: Despejado
LEBB 190200Z AUTO 12001KT CAVOK 15/14 Q1020
LEAS - Asturias/Aviles, Spain
Distancia hasta la estación: W 172 km
Actualización: 19-05-2022 04:00
Nublado  
Nublado  
   Viento: SW 7.4 km/h
Viento: SW 7.4 km/h
Temperatura: 16°C
Punto de rocío: 10°C
Humedad: 68%
Baromètro: 1020 hPa
Nublado: Nublado
Visibilidad: More than 10 km
detalles de la nube: Nublado 4300 ft
LEAS 190200Z AUTO 23004KT 9999 OVC043 16/10 Q1020
LESO - San Sebastian/Fu, Spain
Distancia hasta la estación: E 169 km
Actualización: 19-05-2022 04:00
Nublado  
Nublado  
   Viento: West 5.6 km/h
Viento: West 5.6 km/h
Temperatura: 18°C
Punto de rocío: 15°C
Humedad: 83%
Baromètro: 1019 hPa
Nublado: Nublado
Visibilidad: More than 10 km
detalles de la nube: Nublado 2300 ft
LESO 190200Z AUTO 28003KT 230V310 9999 OVC023 18/15 Q1019
LEVT - Vitoria, Spain
Distancia hasta la estación: ESE 114 km
Actualización: 19-05-2022 04:00
Parcialmente nublado  
Parcialmente nublado  
   Viento: calma
Viento: calma
Temperatura: 12°C
Punto de rocío: 11°C
Humedad: 94%
Baromètro: 1020 hPa
Nublado: Parcialmente nublado
Visibilidad: More than 10 km
detalles de la nube: Parcialmente nublado 2100 ft
LEVT 190200Z 00000KT 9999 BKN021 12/11 Q1020
LEZG - Zaragoza (mil/Ci, Spain
Distancia hasta la estación: SE 307 km
Actualización: 19-05-2022 04:00
Despejado  
Despejado  
   Viento: ESE 13 km/h
Viento: ESE 13 km/h
Temperatura: 22°C
Punto de rocío: 11°C
Humedad: 50%
Baromètro: 1017 hPa
Visibilidad: More than 10 km
detalles de la nube: Despejado
LEZG 190200Z 11007KT CAVOK 22/11 Q1017
LEMD - Madrid ,Spain
Distancia hasta la estación: S 334 km
Actualización: 19-05-2022 04:00
Despejado  
Despejado  
   Viento: N 5.6 km/h
Viento: N 5.6 km/h
Temperatura: 18°C
Punto de rocío: 9°C
Humedad: 56%
Baromètro: 1018 hPa
Visibilidad: More than 10 km
detalles de la nube: Despejado
LEMD 190200Z 35003KT CAVOK 18/09 Q1018 NOSIG
  

Guión original por  Saratoga-weather.org Adaptado para la plantilla por  Weerstation Leuven

Obra sujeta a una Licencia de Creative Commons

RED DE ESTACIONES DE METEOCLIMATIC

Sello de calidad

ESCTB3900000039011A